Delta Virtual Airport Information Service

Punta Cana International Airport

ICAO: MDPC Country: Dominican Republic
Latitude: 18.5674 Longitude: -68.3634
Latest Arrival : DAC6996 (SCEL-MDPC) Latest Departure : DAC6996 (MDPC-MKJS)


WX CaptureLIVE
Data provided by noaa.gov | Fetched at 00:06:11

METAR : MDPC 120500Z 09012KT 9999 SCT018 SCT300 26/24 Q1017

TAF : MDPC 112200Z 1200/1300 09012KT 9999 SCT018 SCT070 BKN300 PROB30 1200/1206 8000 -TSRA FEW016CB SCT016 BKN070


Runway Data for MDPC
Data provided by openaviationdata.com

Runway ID Mag Var Hdg Length Elevation Surface ILS Freq ILS Id ILS Slope
9 -12 96° 10171 ft 47 ft Asphalt -- -- --
27 -12 276° 10171 ft 47 ft Asphalt -- -- --

Punta Cana International Airport, Dominican Republic
Use only for reference purposes



Not for navigational purposes.